createdAt,value
2023-05-23T00:01:48.346Z,17.80
2023-05-23T00:04:18.694Z,17.70
2023-05-23T00:06:47.424Z,17.70
2023-05-23T00:09:14.761Z,17.70
2023-05-23T00:11:45.675Z,17.60
2023-05-23T00:14:13.608Z,17.60
2023-05-23T00:16:44.473Z,17.50
2023-05-23T00:19:11.976Z,17.50
2023-05-23T00:21:39.377Z,17.40
2023-05-23T00:24:06.574Z,17.40
2023-05-23T00:26:34.704Z,17.40
2023-05-23T00:29:02.182Z,17.20
2023-05-23T00:31:29.492Z,17.20
2023-05-23T00:33:57.687Z,17.20
2023-05-23T00:36:24.769Z,17.20
2023-05-23T00:38:53.202Z,17.20
2023-05-23T00:41:21.340Z,17.20
2023-05-23T00:43:48.757Z,17.20
2023-05-23T00:46:17.032Z,17.30
2023-05-23T00:48:43.940Z,17.20
2023-05-23T00:51:12.482Z,17.20
2023-05-23T00:53:39.367Z,17.20
2023-05-23T00:56:06.888Z,17.20
2023-05-23T00:58:33.747Z,17.10
2023-05-23T01:01:01.073Z,17.00
2023-05-23T01:03:28.777Z,17.00
2023-05-23T01:05:56.509Z,17.00
2023-05-23T01:08:24.733Z,16.90
2023-05-23T01:10:52.253Z,16.90
2023-05-23T01:13:26.786Z,16.90
2023-05-23T01:16:01.931Z,16.90
2023-05-23T01:18:38.207Z,16.90
2023-05-23T01:21:09.825Z,16.80
2023-05-23T01:24:03.945Z,16.80
2023-05-23T01:26:45.994Z,16.80
2023-05-23T01:29:22.538Z,16.80
2023-05-23T01:31:52.709Z,16.80
2023-05-23T01:34:20.867Z,16.80
2023-05-23T01:36:51.069Z,16.70
2023-05-23T01:39:17.898Z,16.70
2023-05-23T01:41:45.065Z,16.60
2023-05-23T01:44:14.683Z,16.60
2023-05-23T01:46:41.856Z,16.60
2023-05-23T01:49:11.603Z,16.50
2023-05-23T01:51:39.574Z,16.50
2023-05-23T01:54:07.079Z,16.50
2023-05-23T01:56:35.221Z,16.50
2023-05-23T01:59:02.868Z,16.40
2023-05-23T02:01:31.926Z,16.40
2023-05-23T02:03:58.940Z,16.40
2023-05-23T02:06:26.210Z,16.40
2023-05-23T02:08:53.181Z,16.50
2023-05-23T02:11:20.370Z,16.50
2023-05-23T02:13:47.164Z,16.50
2023-05-23T02:16:14.158Z,16.60
2023-05-23T02:18:42.327Z,16.60
2023-05-23T02:21:09.610Z,16.60
2023-05-23T02:23:36.443Z,16.70
2023-05-23T02:26:03.921Z,16.70
2023-05-23T02:28:30.842Z,16.60
2023-05-23T02:30:58.286Z,16.60
2023-05-23T02:33:25.121Z,16.60
2023-05-23T02:35:55.566Z,16.50
2023-05-23T02:38:22.362Z,16.50
2023-05-23T02:40:51.697Z,16.50
2023-05-23T02:43:18.543Z,16.40
2023-05-23T02:45:45.980Z,16.20
2023-05-23T02:48:12.928Z,16.20
2023-05-23T02:50:40.230Z,16.20
2023-05-23T02:53:08.368Z,16.10
2023-05-23T02:55:35.555Z,16.10
2023-05-23T02:58:05.856Z,16.10
2023-05-23T03:00:33.183Z,16.00
2023-05-23T03:03:00.038Z,16.00
2023-05-23T03:05:27.406Z,16.00
2023-05-23T03:07:54.761Z,15.90
2023-05-23T03:10:23.634Z,15.90
2023-05-23T03:12:50.619Z,15.80
2023-05-23T03:15:18.140Z,15.80
2023-05-23T03:17:45.276Z,15.60
2023-05-23T03:20:12.744Z,15.50
2023-05-23T03:22:40.068Z,15.50
2023-05-23T03:25:08.221Z,15.60
2023-05-23T03:27:36.628Z,15.60
2023-05-23T03:30:04.985Z,15.50
2023-05-23T03:32:32.208Z,15.40
2023-05-23T03:34:59.556Z,15.40
2023-05-23T03:37:26.503Z,15.20
2023-05-23T03:39:54.044Z,15.30
2023-05-23T03:42:21.199Z,15.20
2023-05-23T03:44:49.872Z,15.20
2023-05-23T03:47:16.976Z,15.20
2023-05-23T03:49:45.580Z,15.20
2023-05-23T03:52:12.610Z,15.20
2023-05-23T03:54:39.914Z,15.20
2023-05-23T03:57:07.039Z,15.20
2023-05-23T03:59:35.238Z,15.20
2023-05-23T04:02:03.625Z,15.20
2023-05-23T04:04:31.500Z,15.10
2023-05-23T04:06:59.032Z,15.10
2023-05-23T04:09:26.289Z,15.20
2023-05-23T04:11:53.337Z,15.20
2023-05-23T04:14:22.891Z,15.20
2023-05-23T04:16:49.905Z,15.20
2023-05-23T04:19:18.308Z,15.10
2023-05-23T04:21:45.315Z,15.10
2023-05-23T04:24:12.540Z,15.20
2023-05-23T04:26:39.431Z,15.10
2023-05-23T04:29:06.679Z,15.10
2023-05-23T04:31:36.326Z,15.10
2023-05-23T04:34:04.166Z,15.10
2023-05-23T04:36:32.437Z,15.00
2023-05-23T04:38:59.636Z,15.00
2023-05-23T04:41:26.498Z,15.00
2023-05-23T04:43:54.878Z,15.00
2023-05-23T04:46:26.185Z,15.10
2023-05-23T04:48:54.308Z,15.00
2023-05-23T04:51:22.027Z,15.00
2023-05-23T04:53:51.270Z,15.10
2023-05-23T04:56:21.979Z,15.00
2023-05-23T04:58:49.302Z,15.10
2023-05-23T05:01:16.566Z,15.10
2023-05-23T05:03:43.494Z,15.10
2023-05-23T05:06:10.938Z,15.20
2023-05-23T05:08:37.836Z,15.20
2023-05-23T05:11:06.287Z,15.30
2023-05-23T05:13:33.204Z,15.40
2023-05-23T05:16:00.367Z,15.30
2023-05-23T05:18:27.391Z,15.20
2023-05-23T05:20:54.605Z,15.30
2023-05-23T05:23:25.852Z,15.20
2023-05-23T05:25:53.121Z,15.20
2023-05-23T05:28:22.149Z,15.20
2023-05-23T05:30:54.030Z,15.30
2023-05-23T05:33:23.980Z,15.20
2023-05-23T05:35:51.520Z,15.20
2023-05-23T05:38:18.498Z,15.40
2023-05-23T05:40:45.537Z,15.30
2023-05-23T05:43:12.824Z,15.40
2023-05-23T05:45:41.446Z,15.40
2023-05-23T05:48:08.445Z,15.40
2023-05-23T05:50:35.522Z,15.40
2023-05-23T05:53:02.454Z,15.50
2023-05-23T05:55:29.815Z,15.50
2023-05-23T05:57:56.858Z,15.40
2023-05-23T06:00:24.472Z,15.30
2023-05-23T06:02:54.930Z,15.20
2023-05-23T06:05:22.454Z,15.20
2023-05-23T06:07:52.440Z,15.10
2023-05-23T06:10:19.838Z,15.10
2023-05-23T06:12:46.764Z,15.10
2023-05-23T06:15:14.930Z,15.10
2023-05-23T06:17:41.929Z,15.10
2023-05-23T06:20:11.792Z,15.10
2023-05-23T06:22:38.827Z,14.90
2023-05-23T06:25:07.788Z,15.00
2023-05-23T06:27:34.656Z,15.00
2023-05-23T06:30:02.929Z,15.00
2023-05-23T06:32:29.859Z,14.90
2023-05-23T06:34:57.123Z,14.90
2023-05-23T06:37:25.374Z,15.00
2023-05-23T06:39:52.559Z,14.90
2023-05-23T06:42:19.405Z,14.80
2023-05-23T06:44:46.276Z,14.70
2023-05-23T06:47:13.093Z,14.80
2023-05-23T06:49:39.928Z,14.70
2023-05-23T06:52:06.806Z,14.70
2023-05-23T06:54:35.073Z,14.60
2023-05-23T06:57:01.922Z,14.60
2023-05-23T06:59:29.110Z,14.60
2023-05-23T07:01:55.969Z,14.70
2023-05-23T07:04:22.857Z,14.50
2023-05-23T07:06:49.996Z,14.60
2023-05-23T07:09:17.229Z,14.70
2023-05-23T07:11:45.375Z,14.70
2023-05-23T07:14:12.405Z,14.70
2023-05-23T07:16:39.322Z,14.70
2023-05-23T07:19:06.237Z,14.70
2023-05-23T07:21:33.085Z,14.80
2023-05-23T07:24:02.903Z,14.80
2023-05-23T07:26:29.717Z,14.90
2023-05-23T07:28:58.900Z,14.90
2023-05-23T07:31:25.955Z,15.00
2023-05-23T07:33:55.765Z,15.00
2023-05-23T07:36:23.577Z,15.10
2023-05-23T07:38:50.433Z,15.10
2023-05-23T07:41:17.288Z,15.00
2023-05-23T07:43:44.585Z,15.00
2023-05-23T07:46:12.801Z,15.00
2023-05-23T07:48:39.993Z,15.00
2023-05-23T07:51:07.087Z,15.00
2023-05-23T07:53:35.269Z,15.10
2023-05-23T07:56:02.109Z,15.00
2023-05-23T07:58:29.215Z,15.00
2023-05-23T08:00:56.146Z,15.00
2023-05-23T08:03:24.932Z,15.00
2023-05-23T08:05:51.795Z,15.00
2023-05-23T08:08:18.937Z,15.00
2023-05-23T08:10:46.101Z,15.00
2023-05-23T08:13:13.655Z,15.00
2023-05-23T08:15:40.549Z,15.00
2023-05-23T08:18:07.755Z,15.10
2023-05-23T08:20:36.582Z,15.10
2023-05-23T08:23:03.508Z,15.00
2023-05-23T08:25:30.922Z,15.00
2023-05-23T08:27:58.977Z,15.00
2023-05-23T08:30:26.126Z,15.10
2023-05-23T08:32:54.028Z,15.10
2023-05-23T08:35:21.492Z,15.10
2023-05-23T08:37:51.130Z,15.20
2023-05-23T08:40:20.795Z,15.00
2023-05-23T08:42:49.080Z,14.90
2023-05-23T08:45:16.893Z,14.90
2023-05-23T08:47:45.319Z,14.90
2023-05-23T08:50:13.324Z,14.90
2023-05-23T08:52:45.020Z,14.90
2023-05-23T08:55:13.419Z,14.80
2023-05-23T08:57:43.766Z,14.80
2023-05-23T09:00:14.973Z,14.70
2023-05-23T09:02:44.042Z,14.60
2023-05-23T09:05:11.662Z,14.50
2023-05-23T09:07:39.648Z,14.50
2023-05-23T09:10:08.717Z,14.50
2023-05-23T09:12:38.189Z,14.40
2023-05-23T09:15:05.769Z,14.40
2023-05-23T09:17:36.241Z,14.30
2023-05-23T09:20:05.235Z,14.30
2023-05-23T09:22:32.406Z,14.30
2023-05-23T09:25:00.302Z,14.40
2023-05-23T09:27:28.198Z,14.30
2023-05-23T09:29:56.820Z,14.30
2023-05-23T09:32:24.095Z,14.30
2023-05-23T09:34:57.185Z,14.30
2023-05-23T09:37:29.856Z,14.30
2023-05-23T09:39:57.165Z,14.30
2023-05-23T09:42:24.397Z,14.30
2023-05-23T09:44:51.346Z,14.40
2023-05-23T09:47:20.383Z,14.40
2023-05-23T09:49:48.106Z,14.50
2023-05-23T09:52:15.357Z,14.40
2023-05-23T09:54:43.808Z,14.50
2023-05-23T09:57:11.825Z,14.50
2023-05-23T09:59:41.459Z,14.30
2023-05-23T10:02:11.821Z,14.20
2023-05-23T10:04:41.638Z,14.20
2023-05-23T10:07:15.285Z,14.00
2023-05-23T10:09:45.359Z,14.00
2023-05-23T10:12:48.191Z,14.00
2023-05-23T10:15:17.101Z,13.90
2023-05-23T10:18:02.621Z,13.90
2023-05-23T10:20:33.376Z,13.90
2023-05-23T10:23:01.585Z,13.80
2023-05-23T10:25:29.349Z,13.70
2023-05-23T10:28:01.633Z,13.70
2023-05-23T10:30:30.608Z,13.60
2023-05-23T10:32:58.924Z,13.60
2023-05-23T10:35:39.487Z,13.60
2023-05-23T10:38:13.929Z,13.40
2023-05-23T10:40:51.578Z,13.30
2023-05-23T10:43:25.259Z,13.30
2023-05-23T10:45:52.921Z,13.30
2023-05-23T10:48:32.827Z,13.30
2023-05-23T10:51:06.323Z,13.30
2023-05-23T10:53:36.138Z,13.30
2023-05-23T10:56:06.333Z,13.30
2023-05-23T10:58:33.997Z,13.30
2023-05-23T11:01:05.636Z,13.20
2023-05-23T11:03:37.928Z,13.20
2023-05-23T11:06:07.103Z,13.20
2023-05-23T11:08:47.018Z,13.10
2023-05-23T11:11:15.428Z,13.10
2023-05-23T11:13:57.566Z,13.10
2023-05-23T11:16:25.563Z,13.10
2023-05-23T11:18:52.792Z,13.00
2023-05-23T11:21:22.093Z,12.90
2023-05-23T11:23:54.811Z,12.90
2023-05-23T11:26:32.454Z,12.90
2023-05-23T11:29:00.158Z,12.80
2023-05-23T11:31:27.951Z,12.80
2023-05-23T11:33:55.222Z,12.70
2023-05-23T11:36:23.953Z,12.80
2023-05-23T11:38:52.678Z,12.70
2023-05-23T11:41:19.568Z,12.80
2023-05-23T11:43:51.027Z,12.80
2023-05-23T11:46:18.168Z,12.70
2023-05-23T11:48:46.214Z,12.70
2023-05-23T11:51:13.537Z,12.70
2023-05-23T11:53:42.184Z,12.80
2023-05-23T11:56:09.328Z,12.80
2023-05-23T11:58:38.091Z,12.70
2023-05-23T12:01:09.284Z,12.70
2023-05-23T12:03:46.603Z,12.60
2023-05-23T12:06:15.869Z,12.60
2023-05-23T12:08:44.621Z,12.50
2023-05-23T12:11:11.896Z,12.50
2023-05-23T12:13:42.415Z,12.40
2023-05-23T12:16:09.612Z,12.40
2023-05-23T12:18:38.432Z,12.40
2023-05-23T12:21:10.796Z,12.40
2023-05-23T12:23:39.576Z,12.50
2023-05-23T12:26:08.226Z,12.50
2023-05-23T12:28:37.292Z,12.50
2023-05-23T12:31:16.183Z,12.50
2023-05-23T12:33:44.661Z,12.40
2023-05-23T12:36:11.760Z,12.40
2023-05-23T12:38:41.132Z,12.40
2023-05-23T12:41:10.904Z,12.40
2023-05-23T12:43:41.749Z,12.50
2023-05-23T12:46:08.745Z,12.50
2023-05-23T12:48:36.093Z,12.50
2023-05-23T12:51:04.132Z,12.60
2023-05-23T12:53:31.416Z,12.60
2023-05-23T12:55:58.328Z,12.60
2023-05-23T12:58:28.489Z,12.60
2023-05-23T13:00:56.634Z,12.60
2023-05-23T13:03:23.846Z,12.70
2023-05-23T13:05:50.983Z,12.80
2023-05-23T13:08:19.456Z,12.80
2023-05-23T13:10:46.517Z,12.70
2023-05-23T13:13:13.969Z,12.90
2023-05-23T13:15:42.642Z,13.10
2023-05-23T13:18:10.019Z,13.30
2023-05-23T13:20:37.579Z,13.30
2023-05-23T13:23:05.809Z,13.50
2023-05-23T13:25:32.630Z,13.90
2023-05-23T13:28:01.703Z,14.20
2023-05-23T13:30:29.071Z,14.70
2023-05-23T13:32:57.797Z,15.00
2023-05-23T13:35:24.742Z,15.00
2023-05-23T13:37:52.332Z,14.90
2023-05-23T13:40:21.094Z,14.80
2023-05-23T13:42:51.060Z,14.80
2023-05-23T13:45:18.572Z,15.00
2023-05-23T13:47:46.931Z,14.60
2023-05-23T13:50:17.954Z,14.30
2023-05-23T13:52:48.919Z,14.10
2023-05-23T13:55:17.342Z,14.20
2023-05-23T13:57:44.728Z,14.20
2023-05-23T14:00:12.773Z,14.00
2023-05-23T14:02:40.098Z,14.20
2023-05-23T14:05:08.224Z,14.20
2023-05-23T14:07:37.062Z,14.30
2023-05-23T14:10:05.160Z,14.50
2023-05-23T14:12:32.449Z,14.50
2023-05-23T14:14:59.463Z,14.60
2023-05-23T14:17:26.749Z,14.60
2023-05-23T14:19:53.699Z,14.40
2023-05-23T14:22:20.961Z,14.60
2023-05-23T14:24:49.233Z,14.90
2023-05-23T14:27:16.645Z,14.70
2023-05-23T14:29:46.585Z,15.00
2023-05-23T14:32:13.996Z,15.60
2023-05-23T14:34:40.919Z,15.90
2023-05-23T14:37:08.254Z,16.40
2023-05-23T14:39:35.929Z,16.70
2023-05-23T14:42:05.416Z,16.50
2023-05-23T14:44:32.524Z,16.60
2023-05-23T14:47:00.245Z,16.80
2023-05-23T14:49:27.133Z,16.10
2023-05-23T14:51:54.326Z,15.60
2023-05-23T14:54:21.425Z,15.80
2023-05-23T14:56:51.170Z,16.90
2023-05-23T14:59:21.797Z,17.10
2023-05-23T15:01:49.323Z,17.20
2023-05-23T15:04:16.515Z,16.80
2023-05-23T15:06:43.787Z,16.40
2023-05-23T15:09:10.785Z,16.60
2023-05-23T15:11:42.766Z,16.60
2023-05-23T15:14:09.646Z,16.40
2023-05-23T15:16:39.610Z,16.90
2023-05-23T15:19:07.059Z,17.70
2023-05-23T15:21:34.365Z,17.90
2023-05-23T15:24:01.393Z,18.10
2023-05-23T15:26:28.812Z,17.90
2023-05-23T15:28:56.187Z,17.20
2023-05-23T15:31:23.501Z,16.70
2023-05-23T15:33:51.852Z,16.50
2023-05-23T15:36:19.106Z,16.50
2023-05-23T15:38:46.011Z,17.00
2023-05-23T15:41:13.286Z,17.00
2023-05-23T15:43:40.263Z,17.30
2023-05-23T15:46:07.532Z,17.40
2023-05-23T15:48:34.416Z,17.50
2023-05-23T15:51:03.154Z,17.90
2023-05-23T15:53:34.315Z,17.90
2023-05-23T15:56:04.503Z,17.70
2023-05-23T15:58:32.349Z,17.40
2023-05-23T16:00:59.600Z,16.70
2023-05-23T16:03:26.554Z,16.50
2023-05-23T16:05:53.763Z,16.10
2023-05-23T16:08:22.104Z,16.20
2023-05-23T16:10:49.426Z,16.50
2023-05-23T16:13:17.959Z,16.10
2023-05-23T16:15:45.345Z,16.10
2023-05-23T16:18:12.240Z,16.20
2023-05-23T16:20:39.641Z,15.90
2023-05-23T16:23:06.567Z,15.70
2023-05-23T16:25:35.342Z,15.90
2023-05-23T16:28:02.498Z,16.00
2023-05-23T16:30:30.039Z,16.40
2023-05-23T16:32:57.033Z,16.40
2023-05-23T16:35:24.462Z,16.80
2023-05-23T16:37:51.590Z,17.50
2023-05-23T16:40:19.808Z,17.10
2023-05-23T16:42:48.166Z,17.10
2023-05-23T16:45:15.424Z,17.30
2023-05-23T16:47:42.357Z,17.30
2023-05-23T16:50:10.592Z,16.50
2023-05-23T16:52:39.465Z,16.10
2023-05-23T16:55:07.585Z,15.80
2023-05-23T16:57:34.575Z,15.30
2023-05-23T17:00:07.918Z,15.10
2023-05-23T17:02:35.155Z,14.90
2023-05-23T17:05:02.574Z,14.80
2023-05-23T17:07:30.677Z,14.60
2023-05-23T17:09:57.927Z,14.60
2023-05-23T17:12:26.424Z,14.40
2023-05-23T17:14:53.784Z,14.50
2023-05-23T17:17:21.969Z,14.60
2023-05-23T17:19:49.225Z,14.50
2023-05-23T17:22:16.210Z,14.60
2023-05-23T17:24:43.368Z,14.60
2023-05-23T17:27:10.549Z,14.40
2023-05-23T17:29:37.791Z,14.30
2023-05-23T17:32:05.254Z,14.30
2023-05-23T17:34:33.967Z,14.30
2023-05-23T17:37:01.017Z,14.30
2023-05-23T17:39:28.302Z,14.30
2023-05-23T17:41:55.332Z,14.30
2023-05-23T17:44:22.538Z,14.30
2023-05-23T17:46:49.375Z,14.30
2023-05-23T17:49:16.394Z,14.30
2023-05-23T17:51:44.609Z,14.30
2023-05-23T17:54:11.531Z,14.20
2023-05-23T17:56:38.401Z,14.30
2023-05-23T17:59:06.114Z,14.20
2023-05-23T18:01:34.226Z,14.20
2023-05-23T18:04:02.254Z,14.10
2023-05-23T18:06:29.195Z,14.00
2023-05-23T18:08:57.821Z,14.00
2023-05-23T18:11:25.796Z,13.90
2023-05-23T18:13:53.859Z,14.00
2023-05-23T18:16:21.432Z,13.80
2023-05-23T18:18:48.837Z,13.80
2023-05-23T18:21:18.011Z,13.70
2023-05-23T18:23:45.343Z,13.60
2023-05-23T18:26:13.562Z,13.60
2023-05-23T18:28:40.760Z,13.50
2023-05-23T18:31:07.648Z,13.40
2023-05-23T18:33:34.776Z,13.30
2023-05-23T18:36:02.129Z,13.20
2023-05-23T18:38:29.541Z,13.20
2023-05-23T18:40:56.452Z,13.10
2023-05-23T18:43:25.031Z,13.00
2023-05-23T18:45:51.894Z,12.90
2023-05-23T18:48:18.792Z,12.90
2023-05-23T18:50:45.816Z,12.90
2023-05-23T18:53:13.162Z,12.80
2023-05-23T18:55:39.991Z,12.70
2023-05-23T18:58:07.025Z,12.60
2023-05-23T19:00:36.071Z,12.60
2023-05-23T19:03:03.053Z,12.60
2023-05-23T19:05:30.332Z,12.70
2023-05-23T19:07:57.237Z,12.50
2023-05-23T19:10:24.413Z,12.50
2023-05-23T19:12:51.861Z,12.40
2023-05-23T19:15:19.355Z,12.40
2023-05-23T19:17:48.191Z,12.30
2023-05-23T19:20:18.446Z,12.30
2023-05-23T19:25:17.267Z,12.20
2023-05-23T19:27:44.193Z,12.20
2023-05-23T19:30:11.999Z,12.10
2023-05-23T19:32:38.995Z,12.00
2023-05-23T19:35:08.676Z,12.00
2023-05-23T19:37:35.628Z,12.00
2023-05-23T19:40:02.545Z,11.90
2023-05-23T19:42:29.563Z,11.90
2023-05-23T19:44:57.076Z,11.80
2023-05-23T19:47:24.067Z,11.80
2023-05-23T19:49:51.203Z,11.70
2023-05-23T19:52:19.497Z,11.70
2023-05-23T19:54:46.668Z,11.60
2023-05-23T19:57:13.523Z,11.60
2023-05-23T19:59:40.660Z,11.50
2023-05-23T20:02:07.535Z,11.40
2023-05-23T20:04:34.370Z,11.40
2023-05-23T20:07:01.341Z,11.30
2023-05-23T20:09:29.838Z,11.40
2023-05-23T20:11:56.840Z,11.30
2023-05-23T20:14:23.765Z,11.30
2023-05-23T20:16:53.905Z,11.20
2023-05-23T20:19:20.813Z,11.20
2023-05-23T20:21:47.759Z,11.00
2023-05-23T20:24:15.296Z,11.00
2023-05-23T20:26:43.438Z,10.90
2023-05-23T20:29:11.111Z,11.00
2023-05-23T20:31:38.136Z,10.90
2023-05-23T20:34:05.326Z,10.90
2023-05-23T20:36:33.157Z,10.80
2023-05-23T20:39:00.545Z,10.70
2023-05-23T20:41:29.644Z,10.70
2023-05-23T20:44:03.115Z,10.60
2023-05-23T20:46:33.579Z,10.60
2023-05-23T20:49:01.443Z,10.60
2023-05-23T20:51:28.366Z,10.50
2023-05-23T20:53:55.499Z,10.50
2023-05-23T20:56:22.539Z,10.40
2023-05-23T20:58:49.760Z,10.40
2023-05-23T21:01:18.021Z,10.40
2023-05-23T21:03:45.262Z,10.40
2023-05-23T21:06:12.101Z,10.30
2023-05-23T21:08:39.256Z,10.30
2023-05-23T21:11:06.096Z,10.20
2023-05-23T21:13:33.054Z,10.20
2023-05-23T21:15:59.861Z,10.20
2023-05-23T21:18:28.324Z,10.20
2023-05-23T21:20:55.153Z,10.40
2023-05-23T21:23:22.166Z,10.20
2023-05-23T21:25:49.034Z,10.20
2023-05-23T21:28:16.244Z,10.20
2023-05-23T21:30:43.679Z,10.20
2023-05-23T21:33:11.479Z,10.20
2023-05-23T21:35:39.939Z,10.20
2023-05-23T21:38:06.912Z,10.20
2023-05-23T21:40:33.798Z,10.20
2023-05-23T21:43:00.992Z,10.10
2023-05-23T21:45:27.894Z,10.10
2023-05-23T21:47:54.835Z,10.10
2023-05-23T21:50:22.079Z,10.10
2023-05-23T21:52:50.291Z,10.00
2023-05-23T21:55:17.607Z,9.90
2023-05-23T21:57:44.509Z,9.90
2023-05-23T22:00:12.941Z,9.80
2023-05-23T22:02:39.955Z,9.70
2023-05-23T22:05:07.810Z,9.70
2023-05-23T22:07:34.668Z,9.90
2023-05-23T22:10:03.355Z,9.90
2023-05-23T22:12:31.180Z,9.90
2023-05-23T22:14:58.762Z,9.90
2023-05-23T22:17:26.417Z,9.80
2023-05-23T22:19:53.993Z,9.80
2023-05-23T22:22:20.902Z,9.70
2023-05-23T22:24:48.193Z,9.60
2023-05-23T22:27:16.472Z,9.60
2023-05-23T22:29:43.820Z,9.60
2023-05-23T22:32:10.845Z,9.60
2023-05-23T22:34:38.859Z,9.60
2023-05-23T22:37:05.802Z,9.60
2023-05-23T22:39:33.104Z,9.50
2023-05-23T22:42:00.414Z,9.60
2023-05-23T22:44:28.673Z,9.60
2023-05-23T22:46:58.187Z,9.60
2023-05-23T22:49:30.328Z,9.50
2023-05-23T22:51:58.015Z,9.50
2023-05-23T22:54:25.068Z,9.40
2023-05-23T22:56:53.244Z,9.40
2023-05-23T22:59:20.420Z,9.40
2023-05-23T23:01:48.965Z,9.40
2023-05-23T23:04:15.848Z,9.50
2023-05-23T23:06:43.298Z,9.50
2023-05-23T23:09:10.328Z,9.60
2023-05-23T23:11:37.619Z,9.60
2023-05-23T23:14:04.540Z,9.60
2023-05-23T23:16:32.381Z,9.60
2023-05-23T23:19:02.509Z,9.40
2023-05-23T23:21:29.461Z,9.40
2023-05-23T23:23:56.620Z,9.30
2023-05-23T23:26:23.850Z,9.30
2023-05-23T23:28:51.388Z,9.20
2023-05-23T23:31:18.405Z,9.20
2023-05-23T23:33:46.213Z,9.10
2023-05-23T23:36:14.448Z,9.10
2023-05-23T23:38:41.774Z,9.00
2023-05-23T23:41:08.727Z,9.00
2023-05-23T23:43:35.959Z,8.90
2023-05-23T23:46:02.813Z,8.80
2023-05-23T23:48:29.942Z,8.80
2023-05-23T23:50:56.973Z,8.80
2023-05-23T23:53:25.608Z,8.80
2023-05-23T23:55:52.526Z,8.70
2023-05-23T23:58:20.034Z,8.70
